createdAt,value
2022-10-17T00:00:05.590Z,11.22
2022-10-17T00:02:54.821Z,11.20
2022-10-17T00:05:21.496Z,11.17
2022-10-17T00:07:47.706Z,11.10
2022-10-17T00:10:14.285Z,11.06
2022-10-17T00:12:40.515Z,11.02
2022-10-17T00:15:07.439Z,10.98
2022-10-17T00:17:33.809Z,10.93
2022-10-17T00:20:01.788Z,10.89
2022-10-17T00:22:28.046Z,10.88
2022-10-17T00:24:54.314Z,10.87
2022-10-17T00:27:20.552Z,10.84
2022-10-17T00:29:51.286Z,10.84
2022-10-17T00:32:18.923Z,10.83
2022-10-17T00:34:45.417Z,10.81
2022-10-17T00:37:11.744Z,10.80
2022-10-17T00:39:38.405Z,10.79
2022-10-17T00:42:04.701Z,10.77
2022-10-17T00:44:30.872Z,10.75
2022-10-17T00:47:00.892Z,10.72
2022-10-17T00:49:31.838Z,10.67
2022-10-17T00:52:01.544Z,10.61
2022-10-17T00:54:36.579Z,10.57
2022-10-17T00:57:03.931Z,10.56
2022-10-17T00:59:33.438Z,10.54
2022-10-17T01:02:07.797Z,10.54
2022-10-17T01:04:36.239Z,10.54
2022-10-17T01:07:02.524Z,10.54
2022-10-17T01:09:29.613Z,10.53
2022-10-17T01:12:06.596Z,10.49
2022-10-17T01:14:49.717Z,10.47
2022-10-17T01:17:33.186Z,10.45
2022-10-17T01:20:15.417Z,10.44
2022-10-17T01:22:49.696Z,10.45
2022-10-17T01:25:47.947Z,10.45
2022-10-17T01:28:39.469Z,10.45
2022-10-17T01:31:08.845Z,10.46
2022-10-17T01:34:02.102Z,10.44
2022-10-17T01:36:44.283Z,10.42
2022-10-17T01:39:31.830Z,10.41
2022-10-17T01:42:05.904Z,10.39
2022-10-17T01:44:58.200Z,10.35
2022-10-17T01:47:30.014Z,10.30
2022-10-17T01:50:06.792Z,10.25
2022-10-17T01:52:40.762Z,10.21
2022-10-17T01:55:12.750Z,10.17
2022-10-17T01:57:48.617Z,10.16
2022-10-17T02:00:22.728Z,10.15
2022-10-17T02:02:58.028Z,10.16
2022-10-17T02:05:27.037Z,10.19
2022-10-17T02:07:53.261Z,10.22
2022-10-17T02:10:39.016Z,10.25
2022-10-17T02:13:26.562Z,10.28
2022-10-17T02:15:59.450Z,10.32
2022-10-17T02:18:41.853Z,10.33
2022-10-17T02:21:18.600Z,10.34
2022-10-17T02:23:54.799Z,10.35
2022-10-17T02:26:32.337Z,10.35
2022-10-17T02:29:14.480Z,10.36
2022-10-17T02:31:51.075Z,10.36
2022-10-17T02:34:27.132Z,10.38
2022-10-17T02:37:00.080Z,10.39
2022-10-17T02:39:28.627Z,10.42
2022-10-17T02:42:01.092Z,10.45
2022-10-17T02:44:30.363Z,10.46
2022-10-17T02:47:38.925Z,10.49
2022-10-17T02:50:06.023Z,10.53
2022-10-17T02:52:55.014Z,10.56
2022-10-17T02:55:31.569Z,10.59
2022-10-17T02:58:16.244Z,10.61
2022-10-17T03:00:43.043Z,10.64
2022-10-17T03:03:30.813Z,10.65
2022-10-17T03:06:00.193Z,10.68
2022-10-17T03:08:26.598Z,10.70
2022-10-17T03:10:52.916Z,10.73
2022-10-17T03:13:21.158Z,10.75
2022-10-17T03:15:47.520Z,10.78
2022-10-17T03:18:13.797Z,10.80
2022-10-17T03:20:40.067Z,10.83
2022-10-17T03:23:06.583Z,10.84
2022-10-17T03:25:32.957Z,10.86
2022-10-17T03:28:00.876Z,10.87
2022-10-17T03:30:28.527Z,10.86
2022-10-17T03:32:57.748Z,10.81
2022-10-17T03:35:25.402Z,10.84
2022-10-17T03:37:52.202Z,10.88
2022-10-17T03:40:19.875Z,10.91
2022-10-17T03:42:46.204Z,10.95
2022-10-17T03:45:13.118Z,10.98
2022-10-17T03:47:39.678Z,10.98
2022-10-17T03:50:07.893Z,10.94
2022-10-17T03:52:35.520Z,10.90
2022-10-17T03:55:02.287Z,10.89
2022-10-17T03:57:29.724Z,10.89
2022-10-17T03:59:56.486Z,10.88
2022-10-17T04:02:24.720Z,10.87
2022-10-17T04:04:51.890Z,10.86
2022-10-17T04:07:18.249Z,10.82
2022-10-17T04:09:44.820Z,10.81
2022-10-17T04:12:14.117Z,10.82
2022-10-17T04:14:40.353Z,10.80
2022-10-17T04:17:06.809Z,10.78
2022-10-17T04:19:33.836Z,10.79
2022-10-17T04:22:02.471Z,10.80
2022-10-17T04:24:29.383Z,10.81
2022-10-17T04:27:18.846Z,10.82
2022-10-17T04:29:45.656Z,10.81
2022-10-17T04:32:24.984Z,10.78
2022-10-17T04:35:01.396Z,10.77
2022-10-17T04:37:29.502Z,10.77
2022-10-17T04:39:56.077Z,10.77
2022-10-17T04:42:22.765Z,10.81
2022-10-17T04:44:51.670Z,10.85
2022-10-17T04:47:18.256Z,10.88
2022-10-17T04:49:44.488Z,10.88
2022-10-17T04:52:10.885Z,10.89
2022-10-17T04:54:40.111Z,10.92
2022-10-17T04:57:08.739Z,10.93
2022-10-17T04:59:35.107Z,10.95
2022-10-17T05:02:17.354Z,10.97
2022-10-17T05:04:44.994Z,10.97
2022-10-17T05:07:11.941Z,10.98
2022-10-17T05:09:41.046Z,11.00
2022-10-17T05:12:10.310Z,11.02
2022-10-17T05:14:38.503Z,11.03
2022-10-17T05:17:04.775Z,11.03
2022-10-17T05:19:31.095Z,11.04
2022-10-17T05:21:57.624Z,11.04
2022-10-17T05:24:23.895Z,11.05
2022-10-17T05:26:51.232Z,11.05
2022-10-17T05:29:17.904Z,11.06
2022-10-17T05:31:48.151Z,11.07
2022-10-17T05:34:14.465Z,11.08
2022-10-17T05:36:41.165Z,11.09
2022-10-17T05:39:08.222Z,11.11
2022-10-17T05:41:35.602Z,11.15
2022-10-17T05:44:04.764Z,11.19
2022-10-17T05:46:39.395Z,11.21
2022-10-17T05:49:15.056Z,11.23
2022-10-17T05:51:53.219Z,11.25
2022-10-17T05:54:20.159Z,11.29
2022-10-17T05:56:54.437Z,11.31
2022-10-17T05:59:24.527Z,11.33
2022-10-17T06:01:57.796Z,11.35
2022-10-17T06:04:27.039Z,11.36
2022-10-17T06:06:55.497Z,11.39
2022-10-17T06:09:22.975Z,11.41
2022-10-17T06:11:51.668Z,11.43
2022-10-17T06:14:17.890Z,11.44
2022-10-17T06:16:44.148Z,11.45
2022-10-17T06:19:10.833Z,11.47
2022-10-17T06:21:38.222Z,11.48
2022-10-17T06:24:09.840Z,11.50
2022-10-17T06:26:39.348Z,11.53
2022-10-17T06:29:11.378Z,11.54
2022-10-17T06:31:50.168Z,11.56
2022-10-17T06:34:21.125Z,11.57
2022-10-17T06:36:53.949Z,11.59
2022-10-17T06:39:21.060Z,11.61
2022-10-17T06:41:56.456Z,11.63
2022-10-17T06:44:40.885Z,11.65
2022-10-17T06:47:33.628Z,11.67
2022-10-17T06:50:06.284Z,11.70
2022-10-17T06:52:51.237Z,11.74
2022-10-17T06:55:37.533Z,11.76
2022-10-17T06:58:17.344Z,11.77
2022-10-17T07:03:36.111Z,11.93
2022-10-17T07:06:07.068Z,12.03
2022-10-17T07:08:33.506Z,12.14
2022-10-17T07:11:13.963Z,12.25
2022-10-17T07:13:46.179Z,12.38
2022-10-17T07:16:16.577Z,12.50
2022-10-17T07:18:58.652Z,12.61
2022-10-17T07:21:35.196Z,12.67
2022-10-17T07:24:09.310Z,12.71
2022-10-17T07:26:43.331Z,12.81
2022-10-17T07:29:12.185Z,12.93
2022-10-17T07:31:48.230Z,13.07
2022-10-17T07:34:15.918Z,13.22
2022-10-17T07:36:45.344Z,13.34
2022-10-17T07:39:13.219Z,13.51
2022-10-17T07:41:40.023Z,13.67
2022-10-17T07:44:06.831Z,13.80
2022-10-17T07:46:45.635Z,13.94
2022-10-17T07:49:11.953Z,14.03
2022-10-17T07:51:39.759Z,14.14
2022-10-17T07:54:06.112Z,14.31
2022-10-17T07:56:32.609Z,14.46
2022-10-17T07:59:00.705Z,14.55
2022-10-17T08:01:29.421Z,14.61
2022-10-17T08:03:55.717Z,14.66
2022-10-17T08:06:21.942Z,14.66
2022-10-17T08:08:48.335Z,14.62
2022-10-17T08:11:15.296Z,14.57
2022-10-17T08:13:42.057Z,14.52
2022-10-17T08:16:11.428Z,14.43
2022-10-17T08:18:39.946Z,14.42
2022-10-17T08:21:07.672Z,14.41
2022-10-17T08:23:35.999Z,14.43
2022-10-17T08:26:05.221Z,14.43
2022-10-17T08:28:35.443Z,14.46
2022-10-17T08:31:08.250Z,14.55
2022-10-17T08:33:34.712Z,14.66
2022-10-17T08:36:01.977Z,14.76
2022-10-17T08:38:33.230Z,14.87
2022-10-17T08:41:05.993Z,14.98
2022-10-17T08:43:54.372Z,15.09
2022-10-17T08:46:21.109Z,15.27
2022-10-17T08:48:50.569Z,15.42
2022-10-17T08:51:23.740Z,15.53
2022-10-17T08:53:52.856Z,15.61
2022-10-17T08:56:43.948Z,15.72
2022-10-17T08:59:15.316Z,15.84
2022-10-17T09:01:44.971Z,15.96
2022-10-17T09:04:20.224Z,16.05
2022-10-17T09:06:55.400Z,16.16
2022-10-17T09:09:34.532Z,16.25
2022-10-17T09:12:13.101Z,16.33
2022-10-17T09:14:47.800Z,16.42
2022-10-17T09:17:32.833Z,16.54
2022-10-17T09:20:10.904Z,16.64
2022-10-17T09:22:44.222Z,16.71
2022-10-17T09:25:14.514Z,16.79
2022-10-17T09:27:45.805Z,16.90
2022-10-17T09:30:45.506Z,16.98
2022-10-17T09:33:42.361Z,17.13
2022-10-17T09:36:15.803Z,17.30
2022-10-17T09:38:47.147Z,17.41
2022-10-17T09:41:43.142Z,17.48
2022-10-17T09:44:19.563Z,17.56
2022-10-17T09:47:14.511Z,17.62
2022-10-17T09:49:43.748Z,17.70
2022-10-17T09:52:15.061Z,17.77
2022-10-17T09:54:57.696Z,17.85
2022-10-17T09:57:24.780Z,17.97
2022-10-17T10:00:07.493Z,18.06
2022-10-17T10:02:49.857Z,18.16
2022-10-17T10:05:19.295Z,18.24
2022-10-17T10:08:02.701Z,18.36
2022-10-17T10:10:31.002Z,18.48
2022-10-17T10:13:13.212Z,18.60
2022-10-17T10:15:42.076Z,18.71
2022-10-17T10:21:08.905Z,18.87
2022-10-17T10:23:39.316Z,18.93
2022-10-17T10:26:21.067Z,18.97
2022-10-17T10:28:55.130Z,19.03
2022-10-17T10:31:27.741Z,19.10
2022-10-17T10:33:56.864Z,19.21
2022-10-17T10:36:24.049Z,19.31
2022-10-17T10:38:58.318Z,19.44
2022-10-17T10:41:27.190Z,19.51
2022-10-17T10:43:55.472Z,19.60
2022-10-17T10:46:26.004Z,19.67
2022-10-17T10:49:01.003Z,19.68
2022-10-17T10:51:38.405Z,19.68
2022-10-17T10:54:10.162Z,19.73
2022-10-17T10:56:39.781Z,19.83
2022-10-17T10:59:19.864Z,19.92
2022-10-17T11:01:55.910Z,19.98
2022-10-17T11:04:46.793Z,20.04
2022-10-17T11:07:29.543Z,20.13
2022-10-17T11:09:55.939Z,20.23
2022-10-17T11:12:28.201Z,20.36
2022-10-17T11:15:01.769Z,20.51
2022-10-17T11:18:00.147Z,20.67
2022-10-17T11:20:58.377Z,20.88
2022-10-17T11:24:08.446Z,21.10
2022-10-17T11:26:42.764Z,21.25
2022-10-17T11:29:11.732Z,21.30
2022-10-17T11:31:44.501Z,21.31
2022-10-17T11:34:28.764Z,21.36
2022-10-17T11:37:03.794Z,21.41
2022-10-17T11:39:33.101Z,21.42
2022-10-17T11:42:06.425Z,21.44
2022-10-17T11:44:38.754Z,21.49
2022-10-17T11:47:26.996Z,21.51
2022-10-17T11:53:01.510Z,21.67
2022-10-17T11:55:30.042Z,21.71
2022-10-17T11:58:03.151Z,21.80
2022-10-17T12:00:47.553Z,21.88
2022-10-17T12:03:34.300Z,22.00
2022-10-17T12:06:20.001Z,22.10
2022-10-17T12:08:55.507Z,22.26
2022-10-17T12:11:42.697Z,22.45
2022-10-17T12:14:38.895Z,22.63
2022-10-17T12:17:20.303Z,22.71
2022-10-17T12:19:46.606Z,22.77
2022-10-17T12:22:28.870Z,22.80
2022-10-17T12:24:58.125Z,22.83
2022-10-17T12:27:45.636Z,22.82
2022-10-17T12:30:12.005Z,22.91
2022-10-17T12:33:05.743Z,23.09
2022-10-17T12:35:35.148Z,23.21
2022-10-17T12:38:09.542Z,23.21
2022-10-17T12:40:35.752Z,23.22
2022-10-17T12:43:27.772Z,23.23
2022-10-17T12:45:55.779Z,23.24
2022-10-17T12:48:38.602Z,23.26
2022-10-17T12:51:34.031Z,23.30
2022-10-17T12:54:01.452Z,23.31
2022-10-17T12:56:39.283Z,23.38
2022-10-17T12:59:13.012Z,23.34
2022-10-17T13:01:42.981Z,23.12
2022-10-17T13:04:10.214Z,22.83
2022-10-17T13:06:44.319Z,22.54
2022-10-17T13:09:31.460Z,22.42
2022-10-17T13:12:04.923Z,22.42
2022-10-17T13:14:33.226Z,22.39
2022-10-17T13:17:05.197Z,22.35
2022-10-17T13:19:41.790Z,22.31
2022-10-17T13:22:23.405Z,22.23
2022-10-17T13:24:51.710Z,22.06
2022-10-17T13:27:28.831Z,21.92
2022-10-17T13:29:57.851Z,21.86
2022-10-17T13:32:27.176Z,21.82
2022-10-17T13:35:14.136Z,21.74
2022-10-17T13:37:43.077Z,21.64
2022-10-17T13:40:44.730Z,21.58
2022-10-17T13:43:19.925Z,21.48
2022-10-17T13:45:49.693Z,21.43
2022-10-17T13:48:27.728Z,21.42
2022-10-17T13:51:01.752Z,21.40
2022-10-17T13:53:33.411Z,21.36
2022-10-17T13:56:26.459Z,21.33
2022-10-17T13:58:52.143Z,21.39
2022-10-17T14:01:20.532Z,21.42
2022-10-17T14:03:50.173Z,21.38
2022-10-17T14:06:26.212Z,21.29
2022-10-17T14:09:04.658Z,21.22
2022-10-17T14:11:37.186Z,21.18
2022-10-17T14:14:07.848Z,21.23
2022-10-17T14:16:40.830Z,21.22
2022-10-17T14:19:39.723Z,21.25
2022-10-17T14:22:22.237Z,21.16
2022-10-17T14:24:52.481Z,21.11
2022-10-17T14:27:38.547Z,21.12
2022-10-17T14:33:26.363Z,21.11
2022-10-17T14:35:56.514Z,21.10
2022-10-17T14:38:24.421Z,21.13
2022-10-17T14:41:15.672Z,21.04
2022-10-17T14:44:05.803Z,20.88
2022-10-17T14:46:35.013Z,20.70
2022-10-17T14:49:15.014Z,20.49
2022-10-17T14:52:29.210Z,20.36
2022-10-17T14:54:57.785Z,20.42
2022-10-17T14:57:28.704Z,20.37
2022-10-17T14:59:56.527Z,20.32
2022-10-17T15:02:28.573Z,20.23
2022-10-17T15:04:55.352Z,20.13
2022-10-17T15:07:22.861Z,20.00
2022-10-17T15:09:50.891Z,19.88
2022-10-17T15:12:24.008Z,19.71
2022-10-17T15:14:51.046Z,19.53
2022-10-17T15:17:25.085Z,19.36
2022-10-17T15:19:51.875Z,19.22
2022-10-17T15:22:18.148Z,19.09
2022-10-17T15:24:45.584Z,18.99
2022-10-17T15:27:24.350Z,18.88
2022-10-17T15:29:52.170Z,18.73
2022-10-17T15:32:18.418Z,18.59
2022-10-17T15:34:44.771Z,18.45
2022-10-17T15:37:32.830Z,18.32
2022-10-17T15:39:59.480Z,18.19
2022-10-17T15:42:28.925Z,18.07
2022-10-17T15:44:56.455Z,17.96
2022-10-17T15:47:32.885Z,17.84
2022-10-17T15:50:00.636Z,17.71
2022-10-17T15:52:27.052Z,17.60
2022-10-17T15:54:54.080Z,17.51
2022-10-17T15:57:23.988Z,17.44
2022-10-17T15:59:52.347Z,17.35
2022-10-17T16:02:20.553Z,17.27
2022-10-17T16:04:48.522Z,17.20
2022-10-17T16:07:15.377Z,17.12
2022-10-17T16:09:41.665Z,17.04
2022-10-17T16:12:17.264Z,16.98
2022-10-17T16:14:43.850Z,16.91
2022-10-17T16:17:15.573Z,16.86
2022-10-17T16:19:42.555Z,16.80
2022-10-17T16:22:36.051Z,16.75
2022-10-17T16:25:09.445Z,16.69
2022-10-17T16:27:36.502Z,16.64
2022-10-17T16:30:07.662Z,16.59
2022-10-17T16:32:33.932Z,16.54
2022-10-17T16:35:00.804Z,16.50
2022-10-17T16:37:27.174Z,16.45
2022-10-17T16:39:53.492Z,16.42
2022-10-17T16:42:20.551Z,16.38
2022-10-17T16:44:48.516Z,16.34
2022-10-17T16:47:16.633Z,16.31
2022-10-17T16:49:45.264Z,16.28
2022-10-17T16:52:12.406Z,16.25
2022-10-17T16:54:38.683Z,16.21
2022-10-17T16:57:04.933Z,16.17
2022-10-17T16:59:31.158Z,16.13
2022-10-17T17:01:57.399Z,16.10
2022-10-17T17:04:23.805Z,16.06
2022-10-17T17:06:50.110Z,16.04
2022-10-17T17:09:16.381Z,16.02
2022-10-17T17:11:42.618Z,16.01
2022-10-17T17:14:10.328Z,15.99
2022-10-17T17:16:36.563Z,15.99
2022-10-17T17:19:05.689Z,15.98
2022-10-17T17:21:33.894Z,15.99
2022-10-17T17:24:02.033Z,15.99
2022-10-17T17:26:31.162Z,16.00
2022-10-17T17:28:59.698Z,16.00
2022-10-17T17:31:29.368Z,16.00
2022-10-17T17:36:25.699Z,15.97
2022-10-17T17:38:54.862Z,15.96
2022-10-17T17:41:21.519Z,15.95
2022-10-17T17:43:48.503Z,15.95
2022-10-17T17:46:17.363Z,15.95
2022-10-17T17:48:45.330Z,15.94
2022-10-17T17:51:13.580Z,15.93
2022-10-17T17:53:40.425Z,15.93
2022-10-17T17:56:10.056Z,15.92
2022-10-17T17:58:36.713Z,15.90
2022-10-17T18:01:13.199Z,15.89
2022-10-17T18:03:41.279Z,15.86
2022-10-17T18:06:08.610Z,15.85
2022-10-17T18:08:35.427Z,15.85
2022-10-17T18:11:02.453Z,15.83
2022-10-17T18:13:29.347Z,15.81
2022-10-17T18:16:00.530Z,15.78
2022-10-17T18:18:28.744Z,15.75
2022-10-17T18:20:55.830Z,15.71
2022-10-17T18:23:23.015Z,15.68
2022-10-17T18:25:54.061Z,15.65
2022-10-17T18:28:20.383Z,15.63
2022-10-17T18:30:46.748Z,15.60
2022-10-17T18:33:12.975Z,15.57
2022-10-17T18:35:39.190Z,15.55
2022-10-17T18:38:05.431Z,15.54
2022-10-17T18:40:31.785Z,15.53
2022-10-17T18:42:58.009Z,15.51
2022-10-17T18:45:24.320Z,15.47
2022-10-17T18:47:52.998Z,15.43
2022-10-17T18:50:20.860Z,15.40
2022-10-17T18:52:48.110Z,15.39
2022-10-17T18:55:17.638Z,15.36
2022-10-17T18:57:43.882Z,15.33
2022-10-17T19:00:10.745Z,15.29
2022-10-17T19:02:38.086Z,15.25
2022-10-17T19:05:04.726Z,15.23
2022-10-17T19:07:31.243Z,15.21
2022-10-17T19:09:57.689Z,15.19
2022-10-17T19:12:23.919Z,15.17
2022-10-17T19:14:50.528Z,15.13
2022-10-17T19:17:16.776Z,15.11
2022-10-17T19:19:43.323Z,15.08
2022-10-17T19:22:09.606Z,15.06
2022-10-17T19:24:35.884Z,15.05
2022-10-17T19:27:03.299Z,15.03
2022-10-17T19:29:32.971Z,15.02
2022-10-17T19:32:00.317Z,15.01
2022-10-17T19:34:27.106Z,14.99
2022-10-17T19:36:55.006Z,14.98
2022-10-17T19:39:24.377Z,14.98
2022-10-17T19:41:50.676Z,14.98
2022-10-17T19:44:17.564Z,14.98
2022-10-17T19:46:46.026Z,14.96
2022-10-17T19:49:12.640Z,14.96
2022-10-17T19:51:39.305Z,14.94
2022-10-17T19:54:05.565Z,14.93
2022-10-17T19:56:36.819Z,14.91
2022-10-17T19:59:05.379Z,14.89
2022-10-17T20:01:34.584Z,14.89
2022-10-17T20:04:01.239Z,14.88
2022-10-17T20:06:27.687Z,14.89
2022-10-17T20:08:54.160Z,14.88
2022-10-17T20:11:26.140Z,14.87
2022-10-17T20:13:54.280Z,14.85
2022-10-17T20:16:23.905Z,14.81
2022-10-17T20:18:51.748Z,14.76
2022-10-17T20:21:26.396Z,14.72
2022-10-17T20:23:53.758Z,14.70
2022-10-17T20:26:37.750Z,14.69
2022-10-17T20:29:09.847Z,14.68
2022-10-17T20:31:36.513Z,14.68
2022-10-17T20:34:03.355Z,14.67
2022-10-17T20:36:29.983Z,14.67
2022-10-17T20:38:58.053Z,14.66
2022-10-17T20:41:26.126Z,14.66
2022-10-17T20:43:54.379Z,14.66
2022-10-17T20:46:35.815Z,14.65
2022-10-17T20:49:04.891Z,14.63
2022-10-17T20:51:31.624Z,14.61
2022-10-17T20:53:58.296Z,14.60
2022-10-17T20:56:28.666Z,14.59
2022-10-17T20:59:00.927Z,14.57
2022-10-17T21:01:29.128Z,14.56
2022-10-17T21:03:58.889Z,14.54
2022-10-17T21:06:27.060Z,14.53
2022-10-17T21:08:54.854Z,14.51
2022-10-17T21:11:23.844Z,14.49
2022-10-17T21:13:55.872Z,14.47
2022-10-17T21:16:22.292Z,14.45
2022-10-17T21:18:49.104Z,14.44
2022-10-17T21:21:18.577Z,14.41
2022-10-17T21:23:47.416Z,14.38
2022-10-17T21:26:15.369Z,14.35
2022-10-17T21:28:43.203Z,14.32
2022-10-17T21:31:17.352Z,14.28
2022-10-17T21:33:47.765Z,14.24
2022-10-17T21:36:17.996Z,14.21
2022-10-17T21:38:46.484Z,14.16
2022-10-17T21:41:14.575Z,14.10
2022-10-17T21:43:42.497Z,14.04
2022-10-17T21:46:15.340Z,14.01
2022-10-17T21:48:42.244Z,13.98
2022-10-17T21:51:11.912Z,13.96
2022-10-17T21:53:38.646Z,13.95
2022-10-17T21:56:08.514Z,13.95
2022-10-17T21:58:34.744Z,13.94
2022-10-17T22:01:18.881Z,13.92
2022-10-17T22:03:47.754Z,13.92
2022-10-17T22:09:05.202Z,13.93
2022-10-17T22:11:34.314Z,13.93
2022-10-17T22:14:11.192Z,13.92
2022-10-17T22:16:38.662Z,13.91
2022-10-17T22:19:06.839Z,13.89
2022-10-17T22:21:35.557Z,13.89
2022-10-17T22:24:05.350Z,13.87
2022-10-17T22:26:34.187Z,13.87
2022-10-17T22:29:01.310Z,13.87
2022-10-17T22:31:27.699Z,13.86
2022-10-17T22:33:54.814Z,13.85
2022-10-17T22:36:21.072Z,13.84
2022-10-17T22:38:47.660Z,13.82
2022-10-17T22:41:13.911Z,13.81
2022-10-17T22:43:40.157Z,13.80
2022-10-17T22:46:06.984Z,13.80
2022-10-17T22:48:34.175Z,13.79
2022-10-17T22:51:01.857Z,13.78
2022-10-17T22:53:29.067Z,13.77
2022-10-17T22:56:00.701Z,13.76
2022-10-17T22:58:28.871Z,13.78
2022-10-17T23:00:55.713Z,13.78
2022-10-17T23:03:23.494Z,13.78
2022-10-17T23:05:50.657Z,13.77
2022-10-17T23:08:17.572Z,13.77
2022-10-17T23:10:45.471Z,13.76
2022-10-17T23:13:12.095Z,13.74
2022-10-17T23:15:38.351Z,13.73
2022-10-17T23:18:05.049Z,13.73
2022-10-17T23:20:31.889Z,13.73
2022-10-17T23:22:58.561Z,13.74
2022-10-17T23:25:26.108Z,13.74
2022-10-17T23:27:52.384Z,13.74
2022-10-17T23:30:19.010Z,13.73
2022-10-17T23:32:45.323Z,13.73
2022-10-17T23:35:11.569Z,13.71
2022-10-17T23:37:37.861Z,13.71
2022-10-17T23:40:05.433Z,13.70
2022-10-17T23:42:32.030Z,13.70
2022-10-17T23:44:58.243Z,13.68
2022-10-17T23:47:24.505Z,13.67
2022-10-17T23:49:50.804Z,13.66
2022-10-17T23:52:17.038Z,13.64
2022-10-17T23:54:43.498Z,13.64
2022-10-17T23:57:09.710Z,13.64
2022-10-17T23:59:36.250Z,13.64
